Time;durP1;ratioP1;P1;durP2;ratioP2;P2;SDS_P1;SDS_P2;PMS_P1;PMS_P2;Temp;Humidity;BMP_temperature;BMP_pressure;BME280_temperature;BME280_humidity;BME280_pressure;Samples;Min_cycle;Max_cycle;Signal;HPM_P1;HPM_P2
2023/06/21 00:02:21;;;;;;;14.00;10.23;;;22.60;99.90;;;;;;5094433;28;20394;-54
2023/06/21 00:04:46;;;;;;;20.27;9.57;;;22.50;99.90;;;;;;5093448;28;20027;-54
2023/06/21 00:07:12;;;;;;;17.92;9.43;;;22.30;99.90;;;;;;5094207;28;20106;-56
2023/06/21 00:09:37;;;;;;;13.60;10.43;;;22.30;99.90;;;;;;5094126;28;20024;-53
2023/06/21 00:12:03;;;;;;;12.75;8.55;;;22.30;99.90;;;;;;5094111;28;20032;-52
2023/06/21 00:14:29;;;;;;;11.68;8.82;;;22.30;99.90;;;;;;5092216;28;20073;-56
2023/06/21 00:16:54;;;;;;;14.50;9.13;;;22.30;99.90;;;;;;5077460;28;20024;-51
2023/06/21 00:19:20;;;;;;;18.05;9.48;;;22.20;99.90;;;;;;5093923;28;20028;-53
2023/06/21 00:21:45;;;;;;;14.93;11.05;;;22.20;99.90;;;;;;5093942;28;20032;-53
2023/06/21 00:24:11;;;;;;;17.60;11.10;;;22.30;99.90;;;;;;5074887;28;20509;-53
2023/06/21 00:26:36;;;;;;;17.13;10.60;;;22.20;99.90;;;;;;5093852;28;20361;-53
2023/06/21 00:29:02;;;;;;;15.65;10.30;;;22.20;99.90;;;;;;5093859;28;20138;-50
2023/06/21 00:31:27;;;;;;;18.92;11.02;;;22.20;99.90;;;;;;5075642;28;20487;-51
2023/06/21 00:33:53;;;;;;;18.77;13.30;;;22.20;99.90;;;;;;5093144;28;20035;-52
2023/06/21 00:36:19;;;;;;;20.17;12.50;;;22.20;99.90;;;;;;5093201;28;20024;-49
2023/06/21 00:38:46;;;;;;;18.88;13.50;;;22.20;99.90;;;;;;5093610;28;20024;-54
2023/06/21 00:41:11;;;;;;;17.45;12.55;;;22.20;99.90;;;;;;5093472;28;20023;-51
2023/06/21 00:43:37;;;;;;;17.48;10.68;;;22.10;99.90;;;;;;5093147;28;20027;-55
2023/06/21 00:46:04;;;;;;;19.15;10.90;;;22.00;99.90;;;;;;5093048;28;20031;-55
2023/06/21 00:48:29;;;;;;;17.83;11.02;;;22.00;99.90;;;;;;5093286;28;20016;-54
2023/06/21 00:50:59;;;;;;;18.42;10.45;;;22.00;99.90;;;;;;5075201;28;20024;-53
2023/06/21 00:53:26;;;;;;;15.88;11.05;;;22.00;99.90;;;;;;5092847;28;20028;-50
2023/06/21 00:55:52;;;;;;;22.58;12.68;;;22.00;99.90;;;;;;5092734;28;20020;-53
2023/06/21 00:58:20;;;;;;;15.02;11.10;;;22.00;99.90;;;;;;5092827;28;20078;-53
2023/06/21 01:00:47;;;;;;;19.80;11.63;;;22.00;99.90;;;;;;5093454;28;20024;-52
2023/06/21 01:03:13;;;;;;;17.60;12.50;;;21.90;99.90;;;;;;5092923;28;20433;-56
2023/06/21 01:05:39;;;;;;;14.35;11.13;;;21.90;99.90;;;;;;5074441;28;20032;-54
2023/06/21 01:08:37;;;;;;;13.23;10.77;;;21.80;99.90;;;;;;5093027;28;20538;-54
2023/06/21 01:11:18;;;;;;;16.90;11.32;;;21.70;99.90;;;;;;5092849;28;20062;-55
2023/06/21 01:13:54;;;;;;;18.17;10.07;;;21.60;99.90;;;;;;5073266;28;20114;-52
2023/06/21 01:16:23;;;;;;;17.52;9.63;;;21.60;99.90;;;;;;5092414;28;20031;-56
2023/06/21 01:18:52;;;;;;;15.60;10.18;;;21.50;99.90;;;;;;5092795;28;20395;-55
2023/06/21 01:21:22;;;;;;;16.98;9.60;;;21.50;99.90;;;;;;5092716;28;20024;-56
2023/06/21 01:24:06;;;;;;;12.45;9.77;;;21.50;99.90;;;;;;5073875;28;20037;-53
2023/06/21 01:27:06;;;;;;;13.93;10.15;;;21.50;99.90;;;;;;5092574;28;20016;-51
2023/06/21 01:29:33;;;;;;;14.18;9.43;;;21.50;99.90;;;;;;5036983;28;20067;-50
2023/06/21 01:32:03;;;;;;;14.98;9.30;;;21.40;99.90;;;;;;5092445;28;20031;-48
2023/06/21 01:34:30;;;;;;;14.88;9.88;;;21.40;99.90;;;;;;5091586;28;20048;-48
2023/06/21 01:36:58;;;;;;;19.10;9.55;;;21.30;99.90;;;;;;5093851;28;20023;-47
2023/06/21 01:39:29;;;;;;;12.77;9.65;;;21.30;99.90;;;;;;5092773;28;20027;-50
2023/06/21 01:41:55;;;;;;;14.63;9.25;;;21.30;99.90;;;;;;5092452;28;20433;-54
2023/06/21 01:44:21;;;;;;;13.88;9.18;;;21.30;99.90;;;;;;5091563;28;20106;-55
2023/06/21 01:46:51;;;;;;;18.67;9.38;;;21.20;99.90;;;;;;5092165;28;20419;-53
2023/06/21 01:49:17;;;;;;;16.20;10.00;;;21.20;99.90;;;;;;5091226;28;20012;-51
2023/06/21 01:51:44;;;;;;;13.07;9.65;;;21.20;99.90;;;;;;5092111;28;20501;-51
2023/06/21 01:54:10;;;;;;;17.75;9.20;;;21.20;99.90;;;;;;5091288;28;20027;-51
2023/06/21 01:56:37;;;;;;;16.65;8.82;;;21.10;99.90;;;;;;5073920;28;20031;-51
2023/06/21 01:59:03;;;;;;;14.43;8.80;;;21.10;99.90;;;;;;5073898;28;20115;-52
2023/06/21 02:01:31;;;;;;;14.52;8.65;;;21.00;99.90;;;;;;5073872;28;20154;-49
2023/06/21 02:04:00;;;;;;;12.32;8.15;;;20.90;99.90;;;;;;5091496;28;20077;-49
2023/06/21 02:06:29;;;;;;;17.90;9.90;;;21.00;99.90;;;;;;5091596;28;20027;-53
2023/06/21 02:08:55;;;;;;;13.90;8.30;;;21.00;99.90;;;;;;5091152;28;20024;-53
2023/06/21 02:11:22;;;;;;;14.80;7.97;;;20.90;99.90;;;;;;5091914;28;20031;-51
2023/06/21 02:13:48;;;;;;;15.95;8.63;;;21.00;99.90;;;;;;5072032;28;20046;-54
2023/06/21 02:16:15;;;;;;;14.40;10.25;;;21.00;99.90;;;;;;5073285;28;20055;-52
2023/06/21 02:18:41;;;;;;;15.05;8.55;;;21.10;99.90;;;;;;5073780;28;20455;-51
2023/06/21 02:21:06;;;;;;;9.75;7.82;;;21.10;99.90;;;;;;5090984;28;20044;-54
2023/06/21 02:23:32;;;;;;;13.38;9.38;;;21.10;99.90;;;;;;5091269;28;20031;-56
2023/06/21 02:25:57;;;;;;;10.60;8.07;;;21.10;99.90;;;;;;5091318;28;20028;-54
2023/06/21 02:28:23;;;;;;;12.32;8.48;;;21.20;99.90;;;;;;5091642;28;20024;-50
2023/06/21 02:30:48;;;;;;;11.57;7.88;;;21.20;99.90;;;;;;5091495;28;20031;-49
2023/06/21 02:33:14;;;;;;;12.60;8.45;;;21.10;99.90;;;;;;5091133;28;20024;-53
2023/06/21 02:35:39;;;;;;;13.65;8.30;;;21.10;99.90;;;;;;5091067;28;20032;-53
2023/06/21 02:38:05;;;;;;;14.45;10.00;;;21.00;99.90;;;;;;5091845;28;20482;-52
2023/06/21 02:40:30;;;;;;;13.10;8.27;;;21.00;99.90;;;;;;5091531;28;20020;-53
2023/06/21 02:42:56;;;;;;;12.75;9.50;;;21.00;99.90;;;;;;5091002;28;20217;-49
2023/06/21 02:45:21;;;;;;;11.05;9.00;;;21.00;99.90;;;;;;5090723;28;20480;-48
2023/06/21 02:47:47;;;;;;;16.08;9.50;;;20.90;99.90;;;;;;5091598;28;20035;-52
2023/06/21 02:50:15;;;;;;;13.48;8.98;;;20.90;99.90;;;;;;5091434;28;20463;-48
2023/06/21 02:52:40;;;;;;;19.98;8.02;;;20.90;99.90;;;;;;5090964;28;20039;-47
2023/06/21 02:55:07;;;;;;;10.85;8.25;;;20.80;99.90;;;;;;5089942;28;20555;-50
2023/06/21 02:57:33;;;;;;;13.93;8.93;;;20.80;99.90;;;;;;5091504;28;20031;-53
2023/06/21 02:59:59;;;;;;;15.98;9.70;;;20.70;99.90;;;;;;5091381;28;20103;-54
2023/06/21 03:02:34;;;;;;;14.50;9.40;;;20.60;99.90;;;;;;5091418;28;20016;-51
2023/06/21 03:05:00;;;;;;;;;;;20.40;99.90;;;;;;5090960;28;20059;-55
2023/06/21 03:07:27;;;;;;;11.38;9.63;;;20.30;99.90;;;;;;5073184;28;19966;-52
2023/06/21 03:09:52;;;;;;;16.20;9.90;;;20.20;99.90;;;;;;5091292;28;20028;-47
2023/06/21 03:12:18;;;;;;;11.25;9.60;;;20.20;99.90;;;;;;5091249;28;20086;-50
2023/06/21 03:14:43;;;;;;;20.85;10.52;;;20.20;99.90;;;;;;5089291;28;20034;-53
2023/06/21 03:17:12;;;;;;;13.15;9.80;;;20.20;99.90;;;;;;5091198;28;20028;-50
2023/06/21 03:19:37;;;;;;;23.95;10.05;;;20.20;99.90;;;;;;5091351;28;20028;-51
2023/06/21 03:22:03;;;;;;;15.60;8.60;;;20.20;99.90;;;;;;5095311;28;20538;-53
2023/06/21 03:24:32;;;;;;;11.38;8.35;;;20.20;99.90;;;;;;5093044;28;20032;-48
2023/06/21 03:26:58;;;;;;;10.15;8.07;;;20.80;99.90;;;;;;5094928;28;20020;-52
2023/06/21 03:29:24;;;;;;;19.15;10.23;;;20.30;99.90;;;;;;5095011;28;20024;-49
2023/06/21 03:31:49;;;;;;;15.50;9.75;;;20.20;99.90;;;;;;5094834;28;20364;-48
2023/06/21 03:34:15;;;;;;;17.77;9.68;;;20.50;99.90;;;;;;5094067;28;20050;-51
2023/06/21 03:36:40;;;;;;;14.05;8.57;;;20.50;99.90;;;;;;5094691;28;20028;-54
2023/06/21 03:39:06;;;;;;;13.02;9.30;;;20.50;99.90;;;;;;5094745;28;20111;-51
2023/06/21 03:41:32;;;;;;;12.68;8.35;;;20.50;99.90;;;;;;5094731;28;20012;-49
2023/06/21 03:43:58;;;;;;;15.45;8.00;;;20.50;99.90;;;;;;5094228;28;20099;-51
2023/06/21 03:46:23;;;;;;;11.38;8.75;;;20.60;99.90;;;;;;5094164;28;20024;-54
2023/06/21 03:48:51;;;;;;;12.57;9.00;;;20.60;99.90;;;;;;5094632;28;20059;-56
2023/06/21 03:51:17;;;;;;;18.10;8.82;;;20.70;99.90;;;;;;5094562;28;20031;-52
2023/06/21 03:53:43;;;;;;;21.60;7.50;;;20.70;99.90;;;;;;5094050;28;20403;-51
2023/06/21 03:56:08;;;;;;;13.10;8.57;;;20.70;99.90;;;;;;5093917;28;20032;-51
2023/06/21 03:58:34;;;;;;;16.33;8.40;;;20.80;99.90;;;;;;5075389;28;20043;-54
2023/06/21 04:00:59;;;;;;;19.98;9.18;;;20.80;99.90;;;;;;5094395;28;20488;-52
2023/06/21 04:03:25;;;;;;;12.98;10.15;;;20.70;99.90;;;;;;5093784;28;20036;-53
2023/06/21 04:05:50;;;;;;;14.13;10.27;;;20.70;99.90;;;;;;5093765;28;20024;-52
2023/06/21 04:08:16;;;;;;;28.88;13.38;;;20.60;99.90;;;;;;5094217;28;20491;-52
2023/06/21 04:10:42;;;;;;;16.85;11.23;;;20.50;99.90;;;;;;5094098;28;20461;-53
2023/06/21 04:13:07;;;;;;;14.93;11.43;;;20.50;99.90;;;;;;5093336;28;20164;-58
2023/06/21 04:15:33;;;;;;;21.90;11.48;;;20.50;99.90;;;;;;5094149;28;20024;-54
2023/06/21 04:17:59;;;;;;;17.98;11.88;;;20.50;99.90;;;;;;5094099;28;20025;-53
2023/06/21 04:20:24;;;;;;;22.70;13.00;;;20.70;99.90;;;;;;5076031;28;20484;-55
2023/06/21 04:22:50;;;;;;;19.55;12.80;;;20.60;99.90;;;;;;5093560;28;20034;-54
2023/06/21 04:25:16;;;;;;;17.83;12.38;;;20.60;99.90;;;;;;5093343;28;20032;-53
2023/06/21 04:27:45;;;;;;;17.85;12.45;;;20.60;99.90;;;;;;5092987;28;20544;-54
2023/06/21 04:30:11;;;;;;;24.15;13.07;;;20.70;99.90;;;;;;5093753;28;20032;-56
2023/06/21 04:32:44;;;;;;;22.35;12.77;;;20.70;99.90;;;;;;5092817;28;20024;-56
2023/06/21 04:35:16;;;;;;;13.00;11.68;;;20.70;99.90;;;;;;5093040;28;20554;-52
2023/06/21 04:37:46;;;;;;;15.32;11.40;;;20.80;99.90;;;;;;5093700;28;20030;-50
2023/06/21 04:40:15;;;;;;;13.07;11.63;;;20.90;99.90;;;;;;5093623;28;20040;-49
2023/06/21 04:42:42;;;;;;;20.48;11.65;;;20.90;99.90;;;;;;5093164;28;20020;-49
2023/06/21 04:45:14;;;;;;;16.40;12.20;;;21.00;99.90;;;;;;5093025;28;20111;-52
2023/06/21 04:47:46;;;;;;;16.83;11.05;;;21.00;99.90;;;;;;5093499;28;20035;-54
2023/06/21 04:50:11;;;;;;;15.70;10.57;;;21.10;99.90;;;;;;5093526;28;20099;-55
2023/06/21 04:52:37;;;;;;;13.45;10.05;;;21.20;99.90;;;;;;5093394;28;20054;-52
2023/06/21 04:55:07;;;;;;;11.88;9.13;;;21.40;99.90;;;;;;5092393;28;20035;-53
2023/06/21 04:57:33;;;;;;;17.45;10.73;;;21.50;99.90;;;;;;5093262;28;20103;-51
2023/06/21 05:00:03;;;;;;;12.45;11.10;;;21.70;99.90;;;;;;5092216;28;20078;-52
2023/06/21 05:02:28;;;;;;;15.50;10.15;;;21.80;99.90;;;;;;5093102;28;20020;-53
2023/06/21 05:04:54;;;;;;;12.52;9.85;;;21.90;99.90;;;;;;5074083;28;20485;-54
2023/06/21 05:07:19;;;;;;;15.00;11.18;;;22.10;99.90;;;;;;5093161;28;20039;-54
2023/06/21 05:09:45;;;;;;;14.48;10.65;;;22.50;99.90;;;;;;5093174;28;20376;-54
2023/06/21 05:12:10;;;;;;;14.43;10.30;;;22.90;99.90;;;;;;5092880;28;20037;-55
2023/06/21 05:14:36;;;;;;;13.25;8.93;;;23.30;99.90;;;;;;5090976;28;20054;-53
2023/06/21 05:17:01;;;;;;;11.75;9.07;;;23.70;99.90;;;;;;5092801;28;20035;-51
2023/06/21 05:19:27;;;;;;;19.15;9.43;;;24.00;99.90;;;;;;5092785;28;20471;-52
2023/06/21 05:21:52;;;;;;;11.63;8.35;;;24.40;99.90;;;;;;5092728;28;20032;-54
2023/06/21 05:24:17;;;;;;;17.73;8.93;;;25.00;99.90;;;;;;5092352;28;20043;-55
2023/06/21 05:26:44;;;;;;;15.32;8.35;;;25.70;99.90;;;;;;5092481;28;20080;-57
2023/06/21 05:29:13;;;;;;;11.00;8.45;;;25.90;99.90;;;;;;5092976;28;20027;-57
2023/06/21 05:31:42;;;;;;;11.18;8.77;;;25.70;99.90;;;;;;5092655;28;20032;-55
2023/06/21 05:34:08;;;;;;;15.75;9.00;;;25.10;99.90;;;;;;5090694;28;20031;-55
2023/06/21 05:36:34;;;;;;;15.10;8.52;;;24.60;99.90;;;;;;5092241;28;20036;-55
2023/06/21 05:38:59;;;;;;;15.05;7.97;;;23.90;99.90;;;;;;5092442;28;20024;-57
2023/06/21 05:41:25;;;;;;;12.85;7.40;;;23.50;99.90;;;;;;5092468;28;20499;-56
2023/06/21 05:43:51;;;;;;;15.05;8.43;;;23.30;99.90;;;;;;5090998;28;20020;-56
2023/06/21 05:46:17;;;;;;;14.80;7.90;;;23.00;99.90;;;;;;5091945;28;20372;-55
2023/06/21 05:48:43;;;;;;;17.73;9.23;;;22.90;99.90;;;;;;5092421;28;20058;-50
2023/06/21 05:51:08;;;;;;;9.90;8.18;;;22.80;99.90;;;;;;5074082;28;20060;-53
2023/06/21 05:53:34;;;;;;;13.68;8.85;;;22.60;99.90;;;;;;5091775;28;20491;-57
2023/06/21 05:55:59;;;;;;;19.58;8.48;;;22.60;99.90;;;;;;5091751;28;20024;-52
2023/06/21 05:58:25;;;;;;;10.63;8.30;;;22.50;99.90;;;;;;5092147;28;20017;-53
2023/06/21 06:00:51;;;;;;;14.30;8.95;;;22.40;99.90;;;;;;5092174;28;20052;-55
2023/06/21 06:03:16;;;;;;;15.63;9.23;;;22.40;99.90;;;;;;5089991;28;20030;-57
2023/06/21 06:05:43;;;;;;;11.93;8.00;;;22.40;99.90;;;;;;5091546;28;20080;-57
2023/06/21 06:08:09;;;;;;;12.88;8.65;;;22.50;99.90;;;;;;5073722;28;20020;-57
2023/06/21 06:10:35;;;;;;;16.08;8.65;;;22.50;99.90;;;;;;5091871;28;20031;-54
2023/06/21 06:13:00;;;;;;;14.50;9.52;;;22.50;99.90;;;;;;5073228;28;20189;-59
2023/06/21 06:15:26;;;;;;;14.13;8.73;;;22.40;99.90;;;;;;5090567;28;20310;-55
2023/06/21 06:17:52;;;;;;;15.95;8.52;;;22.40;99.90;;;;;;5073775;28;20459;-55
2023/06/21 06:20:17;;;;;;;11.15;7.95;;;22.40;99.90;;;;;;5092676;28;20028;-54
2023/06/21 06:22:43;;;;;;;13.65;8.00;;;22.40;99.90;;;;;;5092012;28;20142;-57
2023/06/21 06:25:09;;;;;;;14.38;7.88;;;22.40;99.90;;;;;;5091373;28;20352;-56
2023/06/21 06:27:35;;;;;;;12.40;7.72;;;22.30;99.90;;;;;;5092042;28;20502;-55
2023/06/21 06:30:01;;;;;;;9.68;7.82;;;22.30;99.90;;;;;;5091608;28;20028;-58
2023/06/21 06:32:27;;;;;;;12.30;8.13;;;22.40;99.90;;;;;;5091643;28;20031;-57
2023/06/21 06:34:52;;;;;;;14.13;9.35;;;22.40;99.90;;;;;;5072868;28;20020;-54
2023/06/21 06:37:18;;;;;;;10.10;7.50;;;22.40;99.90;;;;;;5073343;28;20024;-56
2023/06/21 06:39:44;;;;;;;12.23;7.45;;;22.40;99.90;;;;;;5090468;28;20475;-57
2023/06/21 06:42:12;;;;;;;12.45;7.18;;;22.30;99.90;;;;;;5091394;28;20099;-54
2023/06/21 06:44:38;;;;;;;10.13;6.85;;;22.40;99.90;;;;;;5090714;28;20054;-59
2023/06/21 06:47:05;;;;;;;11.25;6.55;;;22.40;99.90;;;;;;5073241;28;20024;-57
2023/06/21 06:49:31;;;;;;;14.30;6.72;;;22.50;99.90;;;;;;5091384;28;20163;-57
2023/06/21 06:51:57;;;;;;;14.48;6.90;;;22.50;99.90;;;;;;5091427;28;20127;-54
2023/06/21 06:54:22;;;;;;;12.63;7.28;;;22.60;99.90;;;;;;5090728;28;20027;-54
2023/06/21 06:56:48;;;;;;;8.48;7.10;;;22.60;99.90;;;;;;5077021;28;20028;-57
2023/06/21 06:59:13;;;;;;;8.68;7.47;;;22.60;99.90;;;;;;5095505;28;20027;-56
2023/06/21 07:01:39;;;;;;;8.95;6.60;;;22.70;99.90;;;;;;5095678;28;20024;-54
2023/06/21 07:04:05;;;;;;;8.45;7.50;;;22.70;99.90;;;;;;5094852;28;20099;-55
2023/06/21 07:06:31;;;;;;;11.63;7.88;;;22.70;99.90;;;;;;5095163;28;20028;-56
2023/06/21 07:08:56;;;;;;;16.58;7.28;;;22.70;99.90;;;;;;5094198;28;20098;-57
2023/06/21 07:11:22;;;;;;;11.30;8.15;;;22.70;99.90;;;;;;5094262;28;20035;-55
2023/06/21 07:13:47;;;;;;;13.70;7.82;;;22.70;99.90;;;;;;5093710;28;20423;-53
2023/06/21 07:16:14;;;;;;;10.40;7.22;;;22.60;99.90;;;;;;5094597;28;20046;-56
2023/06/21 07:18:40;;;;;;;13.07;8.18;;;22.70;99.90;;;;;;5095073;28;20028;-56
2023/06/21 07:21:05;;;;;;;14.38;8.15;;;22.90;99.90;;;;;;5095151;28;20078;-55
2023/06/21 07:23:31;;;;;;;12.80;7.65;;;23.00;99.90;;;;;;5094833;28;20028;-57
2023/06/21 07:25:56;;;;;;;11.85;8.15;;;23.10;99.90;;;;;;5094376;28;20103;-53
2023/06/21 07:28:22;;;;;;;10.02;8.45;;;23.20;99.90;;;;;;5095020;28;20024;-56
2023/06/21 07:30:47;;;;;;;13.93;8.70;;;23.20;99.90;;;;;;5094839;28;20045;-58
2023/06/21 07:33:13;;;;;;;11.18;7.95;;;23.20;99.90;;;;;;5094657;28;20077;-53
2023/06/21 07:35:38;;;;;;;10.70;7.53;;;23.10;99.90;;;;;;5094488;28;20071;-52
2023/06/21 07:38:06;;;;;;;16.70;9.18;;;23.10;99.90;;;;;;5094859;28;20399;-58
2023/06/21 07:40:32;;;;;;;14.35;9.02;;;23.30;99.90;;;;;;5094692;28;20012;-57
2023/06/21 07:42:57;;;;;;;20.95;8.52;;;24.10;99.90;;;;;;5092684;28;20035;-57
2023/06/21 07:45:23;;;;;;;10.77;7.60;;;25.30;99.90;;;;;;5093643;28;20063;-56
2023/06/21 07:47:48;;;;;;;13.30;7.50;;;26.90;99.90;;;;;;5075849;28;20177;-56
2023/06/21 07:50:14;;;;;;;14.18;6.70;;;28.20;99.90;;;;;;5094401;28;20058;-57
2023/06/21 07:52:39;;;;;;;10.48;7.03;;;29.50;99.90;;;;;;5076233;28;20028;-55
2023/06/21 07:55:09;;;;;;;8.98;5.85;;;31.10;98.80;;;;;;5093650;28;20082;-57
2023/06/21 07:57:34;;;;;;;10.77;6.28;;;32.00;97.40;;;;;;5094846;28;20100;-60
2023/06/21 08:00:08;;;;;;;10.30;5.90;;;33.10;95.30;;;;;;5085245;28;20116;-57
2023/06/21 08:02:34;;;;;;;6.65;5.72;;;33.40;93.70;;;;;;5081575;28;20046;-58
2023/06/21 08:05:00;;;;;;;8.57;5.32;;;32.70;94.80;;;;;;5075043;28;20395;-58
2023/06/21 08:07:26;;;;;;;8.10;6.20;;;32.90;94.50;;;;;;5093054;28;20112;-60
2023/06/21 08:09:51;;;;;;;8.80;5.85;;;32.40;94.50;;;;;;5089576;28;20028;-57
2023/06/21 08:12:16;;;;;;;7.25;6.05;;;31.80;94.80;;;;;;5092918;28;20038;-58
2023/06/21 08:14:42;;;;;;;12.43;6.28;;;31.10;95.90;;;;;;5092811;28;20402;-57
2023/06/21 08:17:07;;;;;;;10.30;6.65;;;30.60;96.40;;;;;;5093578;28;20032;-58
2023/06/21 08:19:33;;;;;;;11.00;7.00;;;30.60;96.90;;;;;;5075571;28;20016;-55
2023/06/21 08:21:58;;;;;;;13.30;7.25;;;30.10;97.00;;;;;;5075764;28;20477;-57
2023/06/21 08:24:27;;;;;;;11.38;6.90;;;29.70;97.80;;;;;;5074782;28;20484;-56
2023/06/21 08:26:52;;;;;;;9.30;6.10;;;29.30;98.40;;;;;;5093837;28;20098;-55
2023/06/21 08:29:18;;;;;;;7.70;6.72;;;29.20;98.50;;;;;;5075588;28;20116;-56
2023/06/21 08:31:43;;;;;;;7.30;6.03;;;29.10;99.00;;;;;;5093463;28;20125;-57
2023/06/21 08:34:09;;;;;;;10.85;5.80;;;29.00;99.30;;;;;;5092748;28;20046;-59
2023/06/21 08:36:34;;;;;;;8.20;6.80;;;28.80;99.40;;;;;;5075403;28;20028;-58
2023/06/21 08:39:00;;;;;;;8.48;6.47;;;29.10;99.20;;;;;;5093533;28;20426;-56
2023/06/21 08:41:26;;;;;;;8.95;5.90;;;29.10;98.90;;;;;;5093485;28;20025;-57
2023/06/21 08:43:52;;;;;;;7.40;5.95;;;29.10;98.70;;;;;;5075023;28;20501;-58
2023/06/21 08:46:20;;;;;;;7.15;6.45;;;28.80;98.80;;;;;;5092102;28;20495;-57
2023/06/21 08:48:50;;;;;;;7.47;6.18;;;28.10;99.60;;;;;;5092876;28;20085;-56
2023/06/21 08:51:16;;;;;;;7.55;5.97;;;27.70;99.90;;;;;;5093053;28;20031;-59
2023/06/21 08:53:45;;;;;;;6.55;5.95;;;27.60;99.90;;;;;;5069985;28;20024;-59
2023/06/21 08:56:17;;;;;;;9.80;6.03;;;27.10;99.90;;;;;;5092644;28;20392;-55
2023/06/21 08:58:49;;;;;;;9.60;5.75;;;26.90;99.90;;;;;;5084801;28;20016;-56
2023/06/21 09:01:18;;;;;;;7.88;6.40;;;26.80;99.90;;;;;;5072561;28;20013;-57
2023/06/21 09:03:57;;;;;;;10.27;6.07;;;26.60;99.90;;;;;;5054410;28;20044;-54
2023/06/21 09:06:24;;;;;;;10.70;6.57;;;26.70;99.90;;;;;;5088266;28;20107;-60
2023/06/21 09:08:52;;;;;;;11.52;6.40;;;26.80;99.90;;;;;;5093032;28;20031;-59
2023/06/21 09:11:19;;;;;;;10.23;5.70;;;27.00;99.90;;;;;;5089230;28;20027;-56
2023/06/21 09:13:45;;;;;;;8.38;5.82;;;26.90;99.90;;;;;;5092105;28;20056;-60
2023/06/21 09:16:12;;;;;;;5.25;4.75;;;26.80;99.90;;;;;;5092350;28;20023;-60
2023/06/21 09:18:39;;;;;;;11.90;6.28;;;26.90;99.90;;;;;;5088581;28;20028;-58
2023/06/21 09:21:08;;;;;;;10.23;6.57;;;26.90;99.90;;;;;;5083189;28;20064;-56
2023/06/21 09:23:40;;;;;;;10.27;5.50;;;27.10;99.90;;;;;;5086766;28;20020;-59
2023/06/21 09:26:09;;;;;;;8.73;5.15;;;27.70;99.90;;;;;;5072042;28;20028;-58
2023/06/21 09:28:35;;;;;;;6.30;4.43;;;28.20;99.90;;;;;;5085279;28;20499;-60
2023/06/21 09:31:01;;;;;;;7.18;4.50;;;28.60;99.70;;;;;;5092470;28;20035;-59
2023/06/21 09:33:27;;;;;;;7.40;5.05;;;28.60;99.40;;;;;;5091624;28;20032;-59
2023/06/21 09:35:52;;;;;;;8.88;4.43;;;28.70;99.10;;;;;;5090069;28;20028;-59
2023/06/21 09:38:26;;;;;;;4.53;3.97;;;29.00;99.20;;;;;;5082633;28;20028;-61
2023/06/21 09:40:52;;;;;;;7.07;4.35;;;29.00;99.40;;;;;;5090759;28;20073;-60
2023/06/21 09:43:20;;;;;;;7.32;3.90;;;29.10;98.90;;;;;;5091315;28;20027;-56
2023/06/21 09:46:18;;;;;;;6.65;3.90;;;29.20;98.40;;;;;;5080062;28;20052;-56
2023/06/21 09:48:43;;;;;;;15.80;12.32;;;28.90;97.70;;;;;;5019464;28;20043;-59
2023/06/21 09:51:11;;;;;;;9.40;4.90;;;28.50;98.60;;;;;;5092394;28;20028;-59
2023/06/21 09:53:37;;;;;;;4.28;3.78;;;28.20;98.90;;;;;;5091848;28;20032;-59
2023/06/21 09:56:03;;;;;;;4.28;3.88;;;28.00;99.40;;;;;;5092666;28;20403;-60
2023/06/21 09:58:36;;;;;;;7.85;3.20;;;28.00;99.10;;;;;;5088192;28;20035;-62
2023/06/21 10:01:07;;;;;;;5.70;3.88;;;28.10;99.30;;;;;;5088295;28;20024;-58
2023/06/21 10:03:33;;;;;;;7.05;4.15;;;28.10;98.80;;;;;;5086411;28;20050;-58
2023/06/21 10:06:01;;;;;;;3.75;3.45;;;28.00;98.80;;;;;;5091474;28;20016;-59
2023/06/21 10:08:33;;;;;;;5.25;3.58;;;27.80;99.10;;;;;;5091646;28;20070;-58
2023/06/21 10:11:01;;;;;;;5.47;4.20;;;27.90;99.30;;;;;;5088992;28;20028;-59
2023/06/21 10:13:31;;;;;;;8.45;4.15;;;28.10;98.60;;;;;;5051919;28;20488;-59
2023/06/21 10:15:59;;;;;;;6.53;4.65;;;27.90;99.00;;;;;;5069248;28;20036;-61
2023/06/21 10:18:25;;;;;;;7.72;5.10;;;27.80;98.90;;;;;;5090058;28;20103;-61
2023/06/21 10:20:56;;;;;;;4.82;4.40;;;27.80;99.40;;;;;;5081224;28;20451;-57
2023/06/21 10:23:27;;;;;;;4.47;4.18;;;28.10;98.80;;;;;;5086555;28;20031;-60
2023/06/21 10:25:56;;;;;;;7.28;4.65;;;28.20;97.80;;;;;;5088889;28;20081;-60
2023/06/21 10:28:26;;;;;;;7.10;4.57;;;28.30;97.70;;;;;;5069188;28;20369;-60
2023/06/21 10:30:55;;;;;;;6.32;4.18;;;28.30;97.60;;;;;;5089430;28;20024;-60
2023/06/21 10:33:21;;;;;;;7.65;4.38;;;28.10;97.80;;;;;;5090789;28;20043;-60
2023/06/21 10:35:48;;;;;;;4.53;4.07;;;28.10;97.30;;;;;;5089242;28;20513;-61
2023/06/21 10:38:22;;;;;;;6.05;4.82;;;28.00;97.90;;;;;;5091561;28;20028;-61
2023/06/21 10:40:50;;;;;;;4.90;4.38;;;27.90;97.10;;;;;;5091881;28;20039;-61
2023/06/21 10:43:16;;;;;;;7.55;4.20;;;27.60;97.70;;;;;;5090555;28;20052;-59
2023/06/21 10:45:43;;;;;;;5.20;4.70;;;27.70;97.60;;;;;;5091019;28;20514;-61
2023/06/21 10:48:11;;;;;;;14.70;4.85;;;27.70;98.00;;;;;;5090231;28;20024;-60
2023/06/21 10:50:38;;;;;;;5.53;4.85;;;27.70;97.80;;;;;;5091290;28;20024;-60
2023/06/21 10:53:05;;;;;;;7.85;4.70;;;27.60;97.50;;;;;;5090490;28;20024;-59
2023/06/21 10:55:31;;;;;;;8.55;4.80;;;27.60;97.70;;;;;;5084132;28;20027;-61
2023/06/21 10:57:59;;;;;;;4.47;4.03;;;27.80;97.70;;;;;;5077095;28;20024;-59
2023/06/21 11:00:25;;;;;;;7.57;3.97;;;27.80;97.10;;;;;;5072064;28;20097;-57
2023/06/21 11:02:52;;;;;;;5.82;4.53;;;28.10;96.30;;;;;;5083534;28;20025;-60
2023/06/21 11:05:25;;;;;;;5.05;4.55;;;28.20;96.00;;;;;;5090793;28;20094;-61
2023/06/21 11:08:06;;;;;;;6.15;4.07;;;28.20;96.40;;;;;;5091490;28;20055;-60
2023/06/21 11:10:47;;;;;;;5.05;4.55;;;28.30;96.60;;;;;;5089085;28;20120;-57
2023/06/21 11:13:14;;;;;;;6.57;4.57;;;28.10;95.90;;;;;;5082646;28;20040;-58
2023/06/21 11:15:42;;;;;;;5.13;4.72;;;28.20;95.90;;;;;;5087418;28;20032;-59
2023/06/21 11:18:09;;;;;;;5.90;4.90;;;28.20;95.90;;;;;;5084626;28;20115;-59
2023/06/21 11:20:52;;;;;;;4.78;4.25;;;28.10;95.90;;;;;;5072282;28;20024;-57
2023/06/21 11:23:19;;;;;;;21.05;17.95;;;28.10;96.30;;;;;;5090273;28;20028;-59
2023/06/21 11:26:14;;;;;;;4.88;4.47;;;28.20;96.60;;;;;;5089196;28;20102;-58
2023/06/21 11:28:48;;;;;;;4.05;3.65;;;28.20;96.20;;;;;;5063806;28;20037;-56
2023/06/21 11:31:18;;;;;;;4.88;4.38;;;28.40;95.80;;;;;;5085496;28;20032;-57
2023/06/21 11:33:47;;;;;;;4.35;3.80;;;28.60;95.50;;;;;;5088843;28;20020;-55
2023/06/21 11:36:13;;;;;;;5.10;4.40;;;28.70;95.70;;;;;;5090205;28;20384;-56
2023/06/21 11:38:48;;;;;;;4.22;3.88;;;28.70;95.70;;;;;;5071714;28;20073;-58
2023/06/21 11:41:42;;;;;;;5.68;4.38;;;28.70;95.10;;;;;;5091686;28;20020;-57
2023/06/21 11:44:28;;;;;;;4.43;4.03;;;28.60;94.80;;;;;;5080623;28;20036;-58
2023/06/21 11:47:23;;;;;;;4.85;4.30;;;28.40;95.20;;;;;;5084528;28;20407;-55
2023/06/21 11:49:58;;;;;;;5.63;4.53;;;28.40;95.10;;;;;;5079352;28;20430;-48
2023/06/21 11:52:31;;;;;;;4.60;4.05;;;28.30;95.40;;;;;;5071681;28;20047;-58
2023/06/21 11:54:59;;;;;;;4.90;4.15;;;28.30;95.60;;;;;;5093045;28;20031;-52
2023/06/21 11:57:25;;;;;;;4.97;4.43;;;28.40;95.90;;;;;;5094445;28;20027;-56
2023/06/21 11:59:50;;;;;;;6.70;4.68;;;28.40;95.50;;;;;;5094212;28;20028;-55
2023/06/21 12:02:20;;;;;;;5.63;4.15;;;28.40;95.90;;;;;;5092325;28;20031;-52
2023/06/21 12:04:47;;;;;;;4.68;4.13;;;28.40;95.40;;;;;;5093402;28;20020;-61
2023/06/21 12:07:13;;;;;;;5.00;3.70;;;28.50;95.30;;;;;;5093968;28;20028;-53
2023/06/21 12:09:39;;;;;;;4.18;3.78;;;28.50;95.00;;;;;;5093725;28;20028;-48
2023/06/21 12:12:09;;;;;;;4.68;4.28;;;28.50;95.20;;;;;;5093489;28;20020;-51
2023/06/21 12:14:36;;;;;;;4.40;3.88;;;28.50;94.70;;;;;;5093195;28;20027;-50
2023/06/21 12:17:02;;;;;;;4.78;4.28;;;28.60;94.80;;;;;;5093798;28;20058;-55
2023/06/21 12:19:27;;;;;;;5.18;4.63;;;28.60;94.20;;;;;;5092911;28;20020;-55
2023/06/21 12:22:00;;;;;;;5.28;4.30;;;28.70;94.70;;;;;;5093748;28;20077;-50
2023/06/21 12:24:30;;;;;;;28.15;22.27;;;28.70;95.00;;;;;;5093079;28;20031;-52
2023/06/21 12:26:57;;;;;;;5.70;4.60;;;28.80;94.50;;;;;;5093743;28;20020;-51
2023/06/21 12:29:24;;;;;;;6.28;3.85;;;28.80;95.00;;;;;;5093773;28;20149;-52
2023/06/21 12:31:49;;;;;;;6.28;3.90;;;28.80;95.00;;;;;;5093733;28;20383;-53
2023/06/21 12:34:16;;;;;;;5.15;3.88;;;28.90;93.70;;;;;;5090231;28;20024;-55
2023/06/21 12:36:47;;;;;;;6.85;4.03;;;28.80;93.80;;;;;;5090536;28;20134;-48
2023/06/21 12:39:14;;;;;;;4.25;3.85;;;28.70;94.50;;;;;;5093335;28;20024;-51
2023/06/21 12:41:42;;;;;;;4.25;3.85;;;28.70;94.10;;;;;;5069587;28;20024;-48